Time;durP1;ratioP1;P1;durP2;ratioP2;P2;SDS_P1;SDS_P2;PMS_P1;PMS_P2;Temp;Humidity;BMP_temperature;BMP_pressure;BME280_temperature;BME280_humidity;BME280_pressure;Samples;Min_cycle;Max_cycle;Signal;HPM_P1;HPM_P2
2023/06/27 00:01:43;;;;;;;2.38;2.17;;;24.40;65.20;;;;;;5075643;28;20215;-69
2023/06/27 00:04:10;;;;;;;2.40;2.10;;;24.40;65.20;;;;;;5090478;28;20607;-70
2023/06/27 00:06:41;;;;;;;2.25;2.05;;;24.40;65.30;;;;;;5099634;28;20267;-68
2023/06/27 00:09:11;;;;;;;2.38;2.03;;;24.40;65.20;;;;;;5082898;28;20184;-70
2023/06/27 00:11:38;;;;;;;3.30;2.15;;;24.40;65.50;;;;;;5092205;28;20213;-70
2023/06/27 00:14:05;;;;;;;2.25;1.90;;;24.40;65.30;;;;;;5107365;28;20264;-69
2023/06/27 00:16:32;;;;;;;2.70;2.50;;;24.30;65.10;;;;;;5091520;28;20181;-70
2023/06/27 00:19:03;;;;;;;2.47;2.00;;;24.40;64.90;;;;;;5101002;28;20196;-70
2023/06/27 00:21:30;;;;;;;3.13;2.10;;;24.30;64.90;;;;;;5090362;28;20664;-69
2023/06/27 00:23:57;;;;;;;3.70;2.28;;;24.30;64.70;;;;;;5099750;28;20192;-70
2023/06/27 00:26:23;;;;;;;2.35;1.88;;;24.30;64.80;;;;;;5099727;28;20227;-70
2023/06/27 00:28:49;;;;;;;2.38;1.90;;;24.30;64.60;;;;;;5091007;28;20224;-70
2023/06/27 00:31:15;;;;;;;2.20;2.05;;;24.30;64.90;;;;;;5081148;28;20212;-69
2023/06/27 00:33:41;;;;;;;1.80;1.70;;;24.40;65.10;;;;;;5073625;28;20202;-70
2023/06/27 00:36:06;;;;;;;1.90;1.80;;;24.30;65.00;;;;;;5086796;28;20180;-70
2023/06/27 00:38:33;;;;;;;2.28;1.95;;;24.30;65.00;;;;;;5103575;28;20181;-70
2023/06/27 00:40:59;;;;;;;1.92;1.83;;;24.30;65.10;;;;;;5090982;28;20188;-69
2023/06/27 00:43:28;;;;;;;2.50;2.30;;;24.30;65.10;;;;;;5077074;28;20344;-70
2023/06/27 00:45:55;;;;;;;2.10;2.00;;;24.30;65.10;;;;;;5118518;27;20672;-69
2023/06/27 00:48:22;;;;;;;2.13;2.00;;;24.30;65.20;;;;;;5110189;27;20755;-70
2023/06/27 00:50:54;;;;;;;2.00;1.90;;;24.30;65.40;;;;;;5097284;28;20208;-70
2023/06/27 00:53:21;;;;;;;2.00;1.80;;;24.30;65.20;;;;;;5090324;28;20201;-69
2023/06/27 00:55:47;;;;;;;2.38;2.17;;;24.30;65.30;;;;;;5100229;28;20181;-70
2023/06/27 00:58:13;;;;;;;2.22;1.90;;;24.30;65.40;;;;;;5080990;28;20193;-70
2023/06/27 01:00:39;;;;;;;2.10;1.90;;;24.30;65.20;;;;;;5074787;28;20562;-69
2023/06/27 01:03:07;;;;;;;2.38;1.95;;;24.30;65.40;;;;;;5074331;28;20731;-70
2023/06/27 01:05:35;;;;;;;3.50;2.00;;;24.30;65.20;;;;;;5089476;28;20200;-69
2023/06/27 01:08:14;;;;;;;2.20;2.00;;;24.30;65.30;;;;;;5073533;28;20306;-69
2023/06/27 01:11:19;;;;;;;2.00;1.83;;;24.20;65.20;;;;;;5090708;28;20208;-69
2023/06/27 01:13:49;;;;;;;2.00;1.80;;;24.30;65.20;;;;;;5076558;28;20220;-69
2023/06/27 01:16:20;;;;;;;1.70;1.60;;;24.20;65.00;;;;;;5080555;28;20661;-69
2023/06/27 01:18:47;;;;;;;2.20;2.00;;;24.20;65.00;;;;;;5105509;28;20203;-70
2023/06/27 01:21:17;;;;;;;2.13;1.92;;;24.30;65.20;;;;;;5087655;28;20235;-69
2023/06/27 01:23:58;;;;;;;2.30;2.10;;;24.30;65.40;;;;;;5087987;28;20210;-70
2023/06/27 01:26:27;;;;;;;2.15;1.80;;;24.30;65.50;;;;;;5103311;28;20295;-69
2023/06/27 01:28:53;;;;;;;2.03;1.92;;;24.20;65.30;;;;;;5096572;28;20200;-70
2023/06/27 01:31:27;;;;;;;2.28;2.08;;;24.20;65.20;;;;;;5080685;28;20234;-70
2023/06/27 01:34:10;;;;;;;2.15;1.98;;;24.20;65.20;;;;;;5097038;28;20240;-70
2023/06/27 01:36:50;;;;;;;2.10;2.00;;;24.20;65.30;;;;;;5080467;28;20275;-70
2023/06/27 01:39:23;;;;;;;1.73;1.63;;;24.20;65.10;;;;;;5090808;28;20234;-70
2023/06/27 01:41:56;;;;;;;1.88;1.77;;;24.20;65.30;;;;;;5080126;28;20213;-70
2023/06/27 01:44:24;;;;;;;1.90;1.70;;;24.20;65.10;;;;;;5077724;28;20204;-69
2023/06/27 01:46:52;;;;;;;2.00;1.80;;;24.20;65.40;;;;;;5082377;28;20207;-70
2023/06/27 01:49:18;;;;;;;2.42;1.90;;;24.20;65.30;;;;;;5102124;28;20188;-70
2023/06/27 01:51:44;;;;;;;2.33;1.88;;;24.20;65.30;;;;;;5108332;28;20207;-70
2023/06/27 01:54:10;;;;;;;1.75;1.65;;;24.20;65.30;;;;;;5084350;28;20629;-70
2023/06/27 01:56:35;;;;;;;2.70;2.00;;;24.20;65.40;;;;;;5101434;28;20241;-70
2023/06/27 01:59:02;;;;;;;2.45;2.00;;;24.20;65.40;;;;;;5079810;28;20199;-70
2023/06/27 02:01:28;;;;;;;1.90;1.80;;;24.20;65.40;;;;;;5105382;28;20283;-70
2023/06/27 02:03:54;;;;;;;2.22;2.03;;;24.20;65.40;;;;;;5079464;28;20193;-70
2023/06/27 02:06:20;;;;;;;1.90;1.80;;;24.20;65.40;;;;;;5092266;28;20191;-70
2023/06/27 02:08:45;;;;;;;2.00;1.90;;;24.20;65.30;;;;;;5123008;27;20207;-70
2023/06/27 02:11:11;;;;;;;2.53;1.95;;;24.20;65.30;;;;;;5113151;28;20213;-70
2023/06/27 02:13:41;;;;;;;2.30;2.10;;;24.20;65.40;;;;;;5096288;28;20197;-70
2023/06/27 02:16:07;;;;;;;1.80;1.70;;;24.20;65.30;;;;;;5096539;28;20185;-70
2023/06/27 02:18:32;;;;;;;1.83;1.73;;;24.20;65.30;;;;;;5079839;28;20188;-70
2023/06/27 02:20:58;;;;;;;2.17;1.98;;;24.20;65.30;;;;;;5098637;28;20195;-70
2023/06/27 02:23:27;;;;;;;2.10;1.90;;;24.20;65.40;;;;;;5085700;28;20240;-70
2023/06/27 02:25:53;;;;;;;2.13;1.90;;;24.20;65.40;;;;;;5093832;28;20192;-70
2023/06/27 02:28:19;;;;;;;2.40;1.70;;;24.10;65.30;;;;;;5082637;28;20315;-70
2023/06/27 02:30:44;;;;;;;1.98;1.85;;;24.20;65.30;;;;;;5074766;28;20303;-70
2023/06/27 02:33:10;;;;;;;1.73;1.52;;;24.10;65.20;;;;;;5076034;28;20337;-70
2023/06/27 02:35:36;;;;;;;1.88;1.77;;;24.10;65.30;;;;;;5093367;28;20203;-69
2023/06/27 02:38:02;;;;;;;1.90;1.80;;;24.10;65.30;;;;;;5075230;28;20197;-69
2023/06/27 02:40:28;;;;;;;1.95;1.83;;;24.10;65.30;;;;;;5093262;28;20261;-69
2023/06/27 02:42:54;;;;;;;2.20;2.00;;;24.10;65.30;;;;;;5109503;28;20250;-69
2023/06/27 02:45:21;;;;;;;2.30;1.75;;;24.20;65.40;;;;;;5076808;28;20188;-69
2023/06/27 02:47:47;;;;;;;1.80;1.70;;;24.20;65.40;;;;;;5087158;28;20200;-69
2023/06/27 02:50:12;;;;;;;1.70;1.60;;;24.10;65.30;;;;;;5094767;28;20192;-70
2023/06/27 02:52:38;;;;;;;1.80;1.70;;;24.10;65.30;;;;;;5105325;28;20208;-69
2023/06/27 02:55:04;;;;;;;1.67;1.58;;;24.10;65.30;;;;;;5075842;28;20650;-70
2023/06/27 02:57:30;;;;;;;2.13;1.98;;;24.10;65.30;;;;;;5084443;28;20193;-70
2023/06/27 02:59:56;;;;;;;1.67;1.58;;;24.10;65.30;;;;;;5092568;28;20192;-70
2023/06/27 03:02:22;;;;;;;2.20;1.90;;;24.10;65.30;;;;;;5083796;28;20216;-70
2023/06/27 03:04:49;;;;;;;1.67;1.58;;;24.10;65.30;;;;;;5075961;28;20250;-70
2023/06/27 03:07:16;;;;;;;1.80;1.70;;;24.10;65.20;;;;;;5075789;28;20185;-70
2023/06/27 03:09:42;;;;;;;1.75;1.65;;;24.10;65.20;;;;;;5109021;28;20188;-70
2023/06/27 03:12:09;;;;;;;2.05;1.90;;;24.10;65.10;;;;;;5083823;28;20243;-70
2023/06/27 03:14:35;;;;;;;2.28;1.90;;;24.10;65.30;;;;;;5092435;28;20192;-70
2023/06/27 03:17:01;;;;;;;2.00;1.70;;;24.10;65.30;;;;;;5100652;28;20184;-69
2023/06/27 03:19:26;;;;;;;1.77;1.67;;;24.10;65.30;;;;;;5078097;28;20313;-70
2023/06/27 03:21:52;;;;;;;1.80;1.63;;;24.10;65.30;;;;;;5084377;28;20212;-70
2023/06/27 03:24:19;;;;;;;1.80;1.70;;;24.10;65.30;;;;;;5082887;28;20634;-70
2023/06/27 03:26:48;;;;;;;1.48;1.38;;;24.10;65.30;;;;;;5075932;28;20181;-70
2023/06/27 03:29:14;;;;;;;1.73;1.63;;;24.10;65.30;;;;;;5079223;28;20242;-70
2023/06/27 03:31:40;;;;;;;1.73;1.63;;;24.10;65.30;;;;;;5075804;28;20221;-70
2023/06/27 03:34:06;;;;;;;1.42;1.33;;;24.10;65.30;;;;;;5099722;28;20237;-70
2023/06/27 03:36:35;;;;;;;1.90;1.70;;;24.10;65.30;;;;;;5106122;28;20184;-70
2023/06/27 03:39:03;;;;;;;1.98;1.83;;;24.10;65.30;;;;;;5093579;28;20274;-70
2023/06/27 03:41:29;;;;;;;1.75;1.65;;;24.10;65.30;;;;;;5075036;28;20185;-70
2023/06/27 03:43:55;;;;;;;1.42;1.33;;;24.10;65.30;;;;;;5083496;28;20188;-70
2023/06/27 03:46:21;;;;;;;1.60;1.50;;;24.10;65.30;;;;;;5112595;28;20180;-70
2023/06/27 03:48:51;;;;;;;1.95;1.85;;;24.10;65.30;;;;;;5098995;28;20204;-70
2023/06/27 03:51:17;;;;;;;1.85;1.60;;;24.10;65.30;;;;;;5091972;28;20204;-70
2023/06/27 03:53:43;;;;;;;1.45;1.35;;;24.10;65.30;;;;;;5074308;28;20203;-70
2023/06/27 03:56:10;;;;;;;1.58;1.48;;;24.10;65.30;;;;;;5086572;28;20266;-70
2023/06/27 03:58:36;;;;;;;1.95;1.75;;;24.10;65.30;;;;;;5079789;28;20342;-70
2023/06/27 04:01:03;;;;;;;2.22;1.95;;;24.10;65.30;;;;;;5092808;28;20248;-70
2023/06/27 04:03:28;;;;;;;1.70;1.60;;;24.10;65.30;;;;;;5091127;28;20631;-69
2023/06/27 04:05:54;;;;;;;1.85;1.70;;;24.10;65.30;;;;;;5099579;28;20227;-69
2023/06/27 04:08:20;;;;;;;1.60;1.50;;;24.10;65.30;;;;;;5095481;28;20189;-69
2023/06/27 04:10:46;;;;;;;1.80;1.60;;;24.10;65.30;;;;;;5095167;28;20276;-69
2023/06/27 04:13:12;;;;;;;1.70;1.60;;;24.00;65.20;;;;;;5116613;27;20201;-70
2023/06/27 04:15:39;;;;;;;2.17;1.95;;;24.10;65.30;;;;;;5099692;28;20557;-69
2023/06/27 04:18:08;;;;;;;1.77;1.67;;;24.10;65.30;;;;;;5074642;28;20181;-69
2023/06/27 04:20:35;;;;;;;1.52;1.42;;;24.10;65.30;;;;;;5091242;28;20196;-69
2023/06/27 04:23:02;;;;;;;2.38;1.95;;;24.10;65.30;;;;;;5089745;28;20238;-70
2023/06/27 04:25:32;;;;;;;2.88;1.80;;;24.10;65.40;;;;;;5078725;28;20184;-69
2023/06/27 04:27:59;;;;;;;1.95;1.85;;;24.10;65.40;;;;;;5110928;28;20192;-69
2023/06/27 04:30:25;;;;;;;2.15;1.73;;;24.00;65.50;;;;;;5089111;28;20196;-70
2023/06/27 04:32:51;;;;;;;1.77;1.67;;;23.90;62.30;;;;;;5089730;28;20204;-69
2023/06/27 04:35:18;;;;;;;2.00;1.80;;;23.80;61.30;;;;;;5098998;28;20282;-69
2023/06/27 04:37:46;;;;;;;4.18;1.70;;;23.70;60.80;;;;;;5090080;28;20218;-70
2023/06/27 04:40:12;;;;;;;5.03;2.00;;;23.60;59.80;;;;;;5101615;28;20176;-70
2023/06/27 04:42:38;;;;;;;2.78;2.10;;;23.60;59.60;;;;;;5101760;28;20228;-70
2023/06/27 04:45:05;;;;;;;1.90;1.70;;;23.50;59.30;;;;;;5111123;27;20220;-69
2023/06/27 04:47:42;;;;;;;2.72;2.00;;;23.50;58.90;;;;;;5098450;28;20238;-70
2023/06/27 04:50:08;;;;;;;2.30;1.85;;;23.40;58.50;;;;;;5099603;28;20248;-71
2023/06/27 04:52:34;;;;;;;2.58;2.03;;;23.40;58.70;;;;;;5068846;28;20263;-71
2023/06/27 04:54:59;;;;;;;3.20;1.90;;;23.40;58.90;;;;;;5085818;28;20181;-71
2023/06/27 04:57:25;;;;;;;2.22;2.00;;;23.40;59.20;;;;;;5080484;28;20246;-71
2023/06/27 04:59:51;;;;;;;2.65;1.77;;;23.40;59.00;;;;;;5098268;28;20187;-71
2023/06/27 05:02:17;;;;;;;4.60;1.90;;;;;;;;;;5080911;28;20205;-71
2023/06/27 05:04:43;;;;;;;2.30;1.90;;;23.40;58.80;;;;;;5078704;28;20199;-71
2023/06/27 05:07:08;;;;;;;2.63;1.88;;;23.40;59.20;;;;;;5093197;28;20215;-72
2023/06/27 05:09:34;;;;;;;2.15;1.98;;;23.30;59.40;;;;;;5086648;28;20197;-71
2023/06/27 05:12:00;;;;;;;4.00;2.00;;;23.30;59.60;;;;;;5089941;28;20667;-71
2023/06/27 05:14:25;;;;;;;2.90;1.90;;;23.40;60.30;;;;;;5111970;28;20185;-70
2023/06/27 05:16:51;;;;;;;1.75;1.65;;;23.60;61.60;;;;;;5070158;28;20212;-71
2023/06/27 05:19:17;;;;;;;2.97;2.00;;;23.60;61.30;;;;;;5074913;28;20181;-71
2023/06/27 05:21:43;;;;;;;4.45;2.42;;;23.70;61.30;;;;;;5083206;28;20215;-71
2023/06/27 05:24:09;;;;;;;5.43;2.22;;;23.70;61.60;;;;;;5106956;28;20620;-71
2023/06/27 05:26:35;;;;;;;8.25;1.90;;;23.80;61.80;;;;;;5080157;28;20188;-71
2023/06/27 05:29:00;;;;;;;5.78;2.10;;;23.80;61.90;;;;;;5089709;28;20181;-70
2023/06/27 05:31:29;;;;;;;3.60;1.83;;;23.80;62.00;;;;;;5072666;28;20605;-71
2023/06/27 05:33:55;;;;;;;7.03;2.17;;;23.80;62.10;;;;;;5098640;28;20172;-71
2023/06/27 05:36:21;;;;;;;2.80;1.88;;;23.80;62.20;;;;;;5088120;28;20681;-71
2023/06/27 05:38:49;;;;;;;6.22;2.30;;;23.80;62.20;;;;;;5086503;28;20184;-71
2023/06/27 05:41:18;;;;;;;6.50;1.98;;;23.80;62.30;;;;;;5068368;28;20684;-70
2023/06/27 05:43:47;;;;;;;3.17;2.08;;;23.80;62.20;;;;;;5065589;28;20687;-71
2023/06/27 05:46:13;;;;;;;3.67;2.15;;;23.80;62.40;;;;;;5086964;28;20200;-71
2023/06/27 05:48:39;;;;;;;4.97;2.00;;;23.80;62.40;;;;;;5089256;28;20277;-71
2023/06/27 05:51:05;;;;;;;3.05;1.77;;;23.80;62.50;;;;;;5088969;28;20217;-71
2023/06/27 05:53:31;;;;;;;6.55;2.35;;;23.80;62.40;;;;;;5066658;28;20262;-71
2023/06/27 05:55:56;;;;;;;3.95;1.90;;;23.80;62.60;;;;;;5085876;28;20181;-71
2023/06/27 05:58:22;;;;;;;4.55;2.08;;;23.80;62.60;;;;;;5072037;28;20196;-71
2023/06/27 06:00:48;;;;;;;4.10;2.00;;;23.80;62.60;;;;;;5091939;28;20188;-71
2023/06/27 06:03:14;;;;;;;5.03;2.33;;;23.80;62.50;;;;;;5075466;28;20223;-71
2023/06/27 06:05:39;;;;;;;4.10;2.15;;;23.80;62.80;;;;;;5074539;28;20204;-71
2023/06/27 06:08:05;;;;;;;4.63;1.90;;;23.80;62.70;;;;;;5100978;28;20199;-71
2023/06/27 06:10:31;;;;;;;6.72;2.10;;;23.80;62.80;;;;;;5088996;28;20188;-71
2023/06/27 06:12:57;;;;;;;4.45;2.55;;;23.90;62.90;;;;;;5092411;28;20289;-70
2023/06/27 06:15:22;;;;;;;4.55;2.25;;;23.90;63.00;;;;;;5075859;28;20197;-71
2023/06/27 06:17:48;;;;;;;1.83;1.67;;;23.80;63.00;;;;;;5108222;28;20192;-71
2023/06/27 06:20:14;;;;;;;5.15;1.95;;;23.90;63.00;;;;;;5093383;28;20552;-70
2023/06/27 06:22:40;;;;;;;5.97;2.03;;;23.90;63.10;;;;;;5098033;28;20234;-71
2023/06/27 06:25:07;;;;;;;3.22;1.98;;;23.90;63.10;;;;;;5091449;28;20220;-71
2023/06/27 06:27:32;;;;;;;6.40;2.00;;;23.90;63.30;;;;;;5090721;28;20272;-71
2023/06/27 06:29:58;;;;;;;5.20;2.35;;;23.90;63.30;;;;;;5091654;28;20275;-70
2023/06/27 06:32:24;;;;;;;3.85;2.20;;;23.90;63.30;;;;;;5087781;28;20218;-71
2023/06/27 06:34:50;;;;;;;5.70;2.22;;;23.90;63.50;;;;;;5085326;28;20185;-71
2023/06/27 06:37:16;;;;;;;3.85;1.95;;;23.90;63.60;;;;;;5081628;28;20273;-71
2023/06/27 06:39:41;;;;;;;4.55;2.05;;;23.90;63.60;;;;;;5086655;28;20181;-71
2023/06/27 06:42:08;;;;;;;4.18;1.80;;;23.90;63.50;;;;;;5068898;28;20213;-71
2023/06/27 06:44:37;;;;;;;2.55;1.90;;;23.90;63.70;;;;;;5074318;28;20196;-71
2023/06/27 06:47:03;;;;;;;5.95;2.00;;;24.00;63.70;;;;;;5087005;28;20188;-71
2023/06/27 06:49:29;;;;;;;4.07;1.80;;;23.90;64.40;;;;;;5079883;28;20208;-71
2023/06/27 06:51:55;;;;;;;3.13;2.00;;;23.90;63.60;;;;;;5079898;28;20210;-71
2023/06/27 06:54:20;;;;;;;3.53;2.00;;;23.90;63.70;;;;;;5083581;28;20211;-71
2023/06/27 06:56:49;;;;;;;5.53;2.13;;;24.00;63.60;;;;;;5089958;28;20602;-71
2023/06/27 06:59:14;;;;;;;2.92;1.77;;;23.90;64.60;;;;;;5093043;28;20287;-71
2023/06/27 07:01:41;;;;;;;3.20;1.92;;;23.90;63.80;;;;;;5084574;28;20273;-71
2023/06/27 07:04:07;;;;;;;2.60;1.77;;;23.90;64.00;;;;;;5097937;28;20220;-71
2023/06/27 07:06:32;;;;;;;5.10;2.17;;;24.00;64.10;;;;;;5114204;27;20196;-71
2023/06/27 07:08:58;;;;;;;3.20;1.73;;;24.00;64.10;;;;;;5086682;28;20188;-71
2023/06/27 07:11:24;;;;;;;2.58;1.80;;;24.00;64.10;;;;;;5092411;28;20213;-71
2023/06/27 07:13:50;;;;;;;1.90;1.60;;;24.00;64.30;;;;;;5082682;28;20579;-71
2023/06/27 07:16:15;;;;;;;2.78;1.83;;;23.90;64.20;;;;;;5091040;28;20211;-71
2023/06/27 07:18:41;;;;;;;2.00;1.77;;;24.00;64.20;;;;;;5090973;28;20677;-71
2023/06/27 07:21:07;;;;;;;2.85;1.90;;;24.00;64.30;;;;;;5081871;28;20193;-71
2023/06/27 07:23:32;;;;;;;1.90;1.60;;;23.90;64.30;;;;;;5090830;28;20217;-71
2023/06/27 07:25:58;;;;;;;4.53;1.92;;;24.00;64.40;;;;;;5091007;28;20234;-71
2023/06/27 07:28:24;;;;;;;3.75;1.60;;;24.00;64.50;;;;;;5099473;28;20225;-71
2023/06/27 07:30:50;;;;;;;3.05;1.73;;;24.00;64.50;;;;;;5091262;28;20287;-71
2023/06/27 07:33:15;;;;;;;3.50;2.00;;;24.00;64.40;;;;;;5090342;28;20606;-71
2023/06/27 07:35:41;;;;;;;5.40;1.60;;;24.00;64.40;;;;;;5091339;28;20196;-71
2023/06/27 07:38:07;;;;;;;2.67;1.85;;;24.00;64.50;;;;;;5074023;28;20181;-71
2023/06/27 07:40:33;;;;;;;4.30;2.00;;;24.00;64.40;;;;;;5072085;28;20650;-71
2023/06/27 07:42:58;;;;;;;2.67;1.67;;;24.00;64.50;;;;;;5072120;28;20201;-70
2023/06/27 07:45:25;;;;;;;4.22;1.90;;;24.00;64.50;;;;;;5088740;28;20197;-71
2023/06/27 07:47:51;;;;;;;2.38;1.63;;;24.00;64.40;;;;;;5073678;28;20184;-71
2023/06/27 07:50:17;;;;;;;3.08;1.85;;;24.00;64.50;;;;;;5087483;28;20188;-71
2023/06/27 07:52:44;;;;;;;4.70;1.90;;;24.00;64.60;;;;;;5091007;28;20220;-71
2023/06/27 07:55:10;;;;;;;3.15;1.60;;;24.00;64.50;;;;;;5090243;28;20178;-71
2023/06/27 07:57:35;;;;;;;2.13;1.92;;;24.00;64.70;;;;;;5073338;28;20568;-71
2023/06/27 08:00:02;;;;;;;2.28;1.60;;;24.00;64.70;;;;;;5088408;28;20184;-71
2023/06/27 08:02:38;;;;;;;2.75;1.77;;;24.00;64.80;;;;;;5078928;28;20224;-71
2023/06/27 08:05:06;;;;;;;1.77;1.65;;;24.00;64.80;;;;;;5084158;28;20279;-70
2023/06/27 08:07:32;;;;;;;2.10;1.90;;;24.10;64.70;;;;;;5072201;28;20621;-71
2023/06/27 08:09:58;;;;;;;2.95;1.70;;;24.10;64.70;;;;;;5087414;28;20714;-71
2023/06/27 08:12:24;;;;;;;2.80;1.75;;;24.10;64.60;;;;;;5070917;28;20224;-71
2023/06/27 08:14:49;;;;;;;2.17;1.48;;;24.10;64.30;;;;;;5113265;27;20212;-71
2023/06/27 08:17:15;;;;;;;2.17;1.70;;;24.20;64.50;;;;;;5107254;28;20253;-71
2023/06/27 08:19:41;;;;;;;2.65;1.63;;;24.20;64.30;;;;;;5090915;28;20181;-71
2023/06/27 08:22:07;;;;;;;2.10;1.70;;;24.20;64.40;;;;;;5080572;28;20208;-71
2023/06/27 08:24:32;;;;;;;3.00;1.75;;;24.20;64.40;;;;;;5089901;28;20257;-71
2023/06/27 08:26:58;;;;;;;1.75;1.60;;;24.20;64.30;;;;;;5090423;28;20208;-71
2023/06/27 08:29:25;;;;;;;2.35;1.60;;;24.20;64.20;;;;;;5099757;28;20217;-71
2023/06/27 08:31:58;;;;;;;2.78;2.10;;;24.30;64.20;;;;;;5089906;28;20216;-71
2023/06/27 08:34:23;;;;;;;3.10;1.90;;;24.20;64.10;;;;;;5084442;28;20192;-70
2023/06/27 08:36:49;;;;;;;2.60;1.70;;;24.30;64.20;;;;;;5118488;27;20177;-71
2023/06/27 08:39:16;;;;;;;3.75;1.80;;;24.30;63.80;;;;;;5087897;28;20184;-71
2023/06/27 08:41:41;;;;;;;2.58;1.50;;;24.30;63.60;;;;;;5081055;28;20226;-71
2023/06/27 08:44:07;;;;;;;3.30;1.60;;;24.30;63.40;;;;;;5081807;28;20193;-71
2023/06/27 08:46:35;;;;;;;3.35;1.60;;;24.30;63.80;;;;;;5074517;28;20296;-71
2023/06/27 08:49:03;;;;;;;2.42;1.70;;;24.40;63.90;;;;;;5068773;28;20219;-72
2023/06/27 08:51:31;;;;;;;1.83;1.67;;;24.40;64.00;;;;;;5081524;28;20208;-71
2023/06/27 08:54:07;;;;;;;1.92;1.33;;;24.30;64.00;;;;;;5090877;28;20553;-71
2023/06/27 08:56:33;;;;;;;3.33;1.80;;;24.30;63.90;;;;;;5089974;28;20191;-71
2023/06/27 08:59:06;;;;;;;3.42;1.80;;;24.30;63.90;;;;;;5073124;28;20212;-72
2023/06/27 09:01:36;;;;;;;2.95;1.80;;;24.40;63.90;;;;;;5078304;28;20211;-71
2023/06/27 09:04:03;;;;;;;2.63;1.58;;;24.40;64.00;;;;;;5079731;28;20197;-71
2023/06/27 09:06:29;;;;;;;2.53;1.67;;;24.40;64.10;;;;;;5072469;28;20227;-71
2023/06/27 09:08:55;;;;;;;1.70;1.60;;;24.40;64.90;;;;;;5068622;28;20231;-71
2023/06/27 09:11:22;;;;;;;1.58;1.42;;;24.40;64.10;;;;;;5085751;28;20212;-71
2023/06/27 09:13:47;;;;;;;4.13;2.08;;;24.40;63.90;;;;;;5069156;28;20181;-71
2023/06/27 09:16:14;;;;;;;5.63;1.50;;;24.40;64.00;;;;;;5071024;28;20196;-71
2023/06/27 09:18:40;;;;;;;3.03;1.63;;;24.30;63.90;;;;;;5070462;28;20278;-71
2023/06/27 09:21:06;;;;;;;1.92;1.65;;;24.30;64.20;;;;;;5056917;28;20193;-71
2023/06/27 09:23:32;;;;;;;2.67;1.70;;;24.30;64.20;;;;;;5069670;28;20208;-71
2023/06/27 09:26:14;;;;;;;3.25;1.67;;;24.20;63.90;;;;;;5067587;28;20185;-72
2023/06/27 09:28:51;;;;;;;3.63;1.60;;;24.20;63.40;;;;;;5068449;28;20220;-71
2023/06/27 09:31:22;;;;;;;2.25;1.80;;;24.10;63.10;;;;;;5086821;28;20204;-70
2023/06/27 09:33:48;;;;;;;3.72;2.13;;;24.20;63.70;;;;;;5088325;28;20177;-71
2023/06/27 09:36:38;;;;;;;5.35;1.98;;;24.30;63.60;;;;;;5071591;28;20230;-71
2023/06/27 09:39:16;;;;;;;18.25;2.63;;;24.20;63.10;;;;;;5091962;28;20189;-71
2023/06/27 09:41:47;;;;;;;6.13;2.00;;;24.30;63.20;;;;;;5090916;28;20209;-71
2023/06/27 09:44:15;;;;;;;9.27;2.47;;;24.30;63.40;;;;;;5093234;28;20181;-71
2023/06/27 09:46:47;;;;;;;7.47;2.42;;;24.20;63.00;;;;;;5076557;28;20177;-71
2023/06/27 09:49:14;;;;;;;6.95;2.08;;;24.20;62.70;;;;;;5093232;28;20540;-71
2023/06/27 09:51:44;;;;;;;4.93;2.13;;;24.20;62.50;;;;;;5089909;28;20217;-71
2023/06/27 09:54:12;;;;;;;3.95;1.90;;;24.30;62.20;;;;;;5092740;28;20177;-71
2023/06/27 09:56:38;;;;;;;3.35;2.20;;;24.30;62.30;;;;;;5068606;28;20188;-71
2023/06/27 09:59:10;;;;;;;5.35;2.30;;;24.30;61.70;;;;;;5076065;28;20181;-71
2023/06/27 10:01:38;;;;;;;5.03;2.17;;;24.40;61.50;;;;;;5110281;28;20212;-71
2023/06/27 10:04:05;;;;;;;4.68;1.95;;;24.40;61.50;;;;;;5094175;28;20193;-71
2023/06/27 10:06:32;;;;;;;3.50;2.13;;;24.40;61.20;;;;;;5068075;28;20200;-71
2023/06/27 10:08:58;;;;;;;5.38;2.03;;;24.40;60.90;;;;;;5076286;28;20717;-71
2023/06/27 10:11:26;;;;;;;8.98;2.17;;;24.40;60.70;;;;;;5109778;28;20301;-71
2023/06/27 10:13:52;;;;;;;4.93;2.60;;;24.40;60.90;;;;;;5075418;28;20241;-71
2023/06/27 10:16:18;;;;;;;5.78;2.60;;;24.40;60.60;;;;;;5090300;28;20182;-71
2023/06/27 10:18:44;;;;;;;7.82;3.00;;;24.40;61.70;;;;;;5079808;28;20182;-71
2023/06/27 10:21:11;;;;;;;5.45;2.88;;;24.40;61.40;;;;;;5089489;28;20277;-71
2023/06/27 10:23:51;;;;;;;8.07;2.97;;;24.40;61.50;;;;;;5071726;28;20210;-71
2023/06/27 10:26:20;;;;;;;5.07;2.80;;;24.40;61.50;;;;;;5106848;28;20189;-71
2023/06/27 10:28:50;;;;;;;3.65;3.08;;;24.40;61.50;;;;;;5079482;28;20182;-71
2023/06/27 10:31:42;;;;;;;6.90;3.13;;;24.40;61.50;;;;;;5086841;28;20216;-71
2023/06/27 10:34:10;;;;;;;5.07;3.00;;;24.40;61.20;;;;;;5075497;28;20185;-71
2023/06/27 10:36:54;;;;;;;3.05;2.53;;;24.40;61.10;;;;;;5092334;28;20192;-71
2023/06/27 10:39:34;;;;;;;4.88;2.60;;;24.40;60.90;;;;;;5092525;28;20185;-71
2023/06/27 10:42:25;;;;;;;3.78;2.63;;;24.50;60.70;;;;;;5091443;28;20215;-70
2023/06/27 10:45:10;;;;;;;4.75;3.22;;;24.50;60.70;;;;;;5077022;28;20173;-71
2023/06/27 10:47:43;;;;;;;4.63;2.90;;;24.50;60.50;;;;;;5073572;28;20189;-71
2023/06/27 10:50:15;;;;;;;5.97;2.95;;;24.40;61.40;;;;;;5092322;28;20215;-71
2023/06/27 10:53:05;;;;;;;4.05;2.35;;;24.40;60.40;;;;;;5083706;28;20299;-72
2023/06/27 10:55:33;;;;;;;4.00;2.53;;;24.40;60.30;;;;;;5093210;28;20216;-72
2023/06/27 10:58:14;;;;;;;3.88;2.50;;;24.40;60.00;;;;;;5092120;28;20173;-72
2023/06/27 11:00:47;;;;;;;7.00;3.28;;;24.50;60.50;;;;;;5083613;28;20275;-71
2023/06/27 11:03:18;;;;;;;14.40;3.47;;;24.40;60.40;;;;;;5091239;28;20292;-72
2023/06/27 11:05:54;;;;;;;6.97;3.38;;;24.50;60.30;;;;;;5070985;28;20189;-71
2023/06/27 11:08:26;;;;;;;22.80;4.97;;;24.50;60.30;;;;;;5072397;28;20192;-71
2023/06/27 11:11:05;;;;;;;16.00;4.25;;;24.50;60.10;;;;;;5090123;28;20213;-70
2023/06/27 11:13:38;;;;;;;15.55;4.30;;;24.50;60.20;;;;;;5067573;28;20223;-70
2023/06/27 11:16:04;;;;;;;11.57;4.13;;;24.50;60.00;;;;;;5087269;28;20681;-71
2023/06/27 11:18:30;;;;;;;12.25;3.58;;;24.50;59.70;;;;;;5089449;28;20173;-71
2023/06/27 11:20:57;;;;;;;12.23;3.42;;;24.50;60.10;;;;;;5070111;28;20195;-71
2023/06/27 11:23:24;;;;;;;11.35;3.47;;;24.50;60.00;;;;;;5072583;28;20265;-71
2023/06/27 11:25:52;;;;;;;7.07;3.10;;;24.50;60.20;;;;;;5090356;28;20193;-71
2023/06/27 11:28:21;;;;;;;9.95;3.40;;;24.50;60.00;;;;;;5090068;28;20604;-71
2023/06/27 11:30:47;;;;;;;10.10;3.28;;;24.50;60.10;;;;;;5073501;28;20185;-72
2023/06/27 11:33:19;;;;;;;8.23;2.80;;;24.50;59.90;;;;;;5073711;28;20307;-71
2023/06/27 11:35:45;;;;;;;7.18;2.67;;;24.50;59.90;;;;;;5091177;28;20189;-72
2023/06/27 11:38:11;;;;;;;7.78;2.97;;;24.50;60.80;;;;;;5083036;28;20277;-71
2023/06/27 11:40:47;;;;;;;8.02;3.05;;;24.50;59.90;;;;;;5090697;28;20257;-71
2023/06/27 11:43:15;;;;;;;7.28;2.90;;;24.50;59.60;;;;;;5057608;28;20197;-71
2023/06/27 11:45:45;;;;;;;8.07;2.70;;;24.50;59.60;;;;;;5084159;28;20177;-72
2023/06/27 11:48:11;;;;;;;9.48;2.22;;;24.50;59.70;;;;;;5071994;28;20560;-72
2023/06/27 11:51:10;;;;;;;6.93;3.05;;;24.50;59.60;;;;;;5100738;28;20185;-71
2023/06/27 11:53:37;;;;;;;4.30;2.55;;;24.50;59.60;;;;;;5091123;28;20269;-73
2023/06/27 11:56:05;;;;;;;3.97;2.55;;;24.50;59.60;;;;;;5091748;28;20189;-73
2023/06/27 11:58:37;;;;;;;4.40;2.40;;;24.50;59.30;;;;;;5075297;28;20185;-72
2023/06/27 12:01:13;;;;;;;4.00;2.47;;;24.50;59.40;;;;;;5091539;28;20229;-73
2023/06/27 12:03:39;;;;;;;4.70;2.28;;;24.60;59.50;;;;;;5091551;28;20212;-73
2023/06/27 12:06:05;;;;;;;5.38;2.65;;;24.60;59.50;;;;;;5092873;28;20227;-73
2023/06/27 12:08:35;;;;;;;4.20;2.17;;;24.60;59.90;;;;;;5074686;28;20234;-73
2023/06/27 12:11:03;;;;;;;4.50;2.38;;;24.60;59.50;;;;;;5091210;28;20236;-73
2023/06/27 12:13:39;;;;;;;3.78;2.55;;;24.60;59.40;;;;;;5086792;28;20198;-73
2023/06/27 12:16:05;;;;;;;3.30;2.35;;;24.60;59.40;;;;;;5072891;28;20753;-73
2023/06/27 12:18:32;;;;;;;4.65;2.95;;;24.60;59.40;;;;;;5073610;28;20184;-73
2023/06/27 12:20:59;;;;;;;5.97;2.80;;;24.60;59.20;;;;;;5091524;28;20200;-73
2023/06/27 12:23:28;;;;;;;2.92;2.17;;;24.60;59.40;;;;;;5070000;28;20281;-72
2023/06/27 12:25:55;;;;;;;4.97;2.20;;;24.60;59.50;;;;;;5090422;28;20188;-72
2023/06/27 12:28:26;;;;;;;3.85;2.50;;;24.60;59.60;;;;;;5090105;28;20553;-73
2023/06/27 12:30:52;;;;;;;3.65;2.30;;;24.60;59.50;;;;;;5090454;28;20204;-73
2023/06/27 12:33:18;;;;;;;4.95;2.17;;;24.60;59.70;;;;;;5072731;28;20200;-73
2023/06/27 12:35:44;;;;;;;4.10;1.90;;;24.70;59.80;;;;;;5089819;28;20191;-73
2023/06/27 12:38:10;;;;;;;6.35;2.30;;;24.70;59.80;;;;;;5107115;28;20181;-73
2023/06/27 12:40:36;;;;;;;4.78;2.15;;;24.70;60.10;;;;;;5064670;28;20246;-73
2023/06/27 12:43:03;;;;;;;4.90;2.63;;;24.70;60.30;;;;;;5089155;28;20204;-73
2023/06/27 12:45:32;;;;;;;6.93;2.10;;;24.70;60.30;;;;;;5091266;28;20185;-73
2023/06/27 12:47:57;;;;;;;6.05;2.33;;;24.70;60.80;;;;;;5071760;28;20185;-73
2023/06/27 12:50:23;;;;;;;2.83;2.20;;;24.70;60.80;;;;;;5071701;28;20271;-73
2023/06/27 12:52:49;;;;;;;3.08;2.20;;;24.70;60.90;;;;;;5089405;28;20212;-73